createdAt,value
2022-08-14T00:00:07.252Z,100106.28
2022-08-14T00:02:11.661Z,100103.53
2022-08-14T00:04:35.795Z,100103.91
2022-08-14T00:06:37.474Z,100101.97
2022-08-14T00:08:44.930Z,100096.03
2022-08-14T00:10:52.071Z,100087.75
2022-08-14T00:12:56.754Z,100088.16
2022-08-14T00:14:59.243Z,100073.91
2022-08-14T00:17:01.989Z,100060.91
2022-08-14T00:19:18.813Z,100073.56
2022-08-14T00:21:30.961Z,100061.69
2022-08-14T00:23:35.068Z,100067.22
2022-08-14T00:25:42.103Z,100063.69
2022-08-14T00:27:44.690Z,100056.94
2022-08-14T00:29:50.794Z,100050.22
2022-08-14T00:31:56.388Z,100054.94
2022-08-14T00:33:58.780Z,100049.00
2022-08-14T00:36:37.265Z,100057.72
2022-08-14T00:38:44.792Z,100045.50
2022-08-14T00:40:48.086Z,100044.34
2022-08-14T00:42:55.767Z,100033.28
2022-08-14T00:44:58.216Z,100046.00
2022-08-14T00:47:00.447Z,100044.38
2022-08-14T00:49:02.586Z,100045.94
2022-08-14T00:51:04.773Z,100049.91
2022-08-14T00:53:10.510Z,100050.66
2022-08-14T00:55:16.104Z,100046.28
2022-08-14T00:57:18.985Z,100046.25
2022-08-14T00:59:20.586Z,100051.00
2022-08-14T01:01:22.490Z,100056.19
2022-08-14T01:03:25.930Z,100046.34
2022-08-14T01:05:41.624Z,100050.69
2022-08-14T01:07:56.854Z,100047.94
2022-08-14T01:10:02.580Z,100051.09
2022-08-14T01:12:05.945Z,100052.69
2022-08-14T01:14:25.711Z,100048.03
2022-08-14T01:16:30.795Z,100049.59
2022-08-14T01:18:33.184Z,100048.78
2022-08-14T01:20:39.879Z,100048.38
2022-08-14T01:22:43.504Z,100041.66
2022-08-14T01:24:45.280Z,100043.63
2022-08-14T01:26:50.816Z,100042.84
2022-08-14T01:28:56.955Z,100040.47
2022-08-14T01:30:59.936Z,100030.19
2022-08-14T01:33:01.598Z,100033.75
2022-08-14T01:35:19.829Z,100034.56
2022-08-14T01:37:27.942Z,100030.25
2022-08-14T01:39:32.357Z,100028.66
2022-08-14T01:41:35.324Z,100017.22
2022-08-14T01:43:56.656Z,100011.28
2022-08-14T01:46:06.734Z,100007.78
2022-08-14T01:48:13.771Z,100001.41
2022-08-14T01:50:15.785Z,99999.41
2022-08-14T01:52:34.462Z,99990.34
2022-08-14T01:54:40.306Z,99987.22
2022-08-14T01:56:42.089Z,99989.63
2022-08-14T01:58:58.058Z,99990.81
2022-08-14T02:00:59.948Z,99991.59
2022-08-14T02:03:02.003Z,99983.41
2022-08-14T02:05:03.976Z,99993.72
2022-08-14T02:07:07.134Z,99989.75
2022-08-14T02:09:19.323Z,99988.19
2022-08-14T02:11:26.251Z,99985.06
2022-08-14T02:13:27.792Z,99980.69
2022-08-14T02:15:32.328Z,99985.09
2022-08-14T02:17:34.104Z,99985.84
2022-08-14T02:19:35.697Z,99994.94
2022-08-14T02:21:43.362Z,99985.84
2022-08-14T02:23:46.685Z,99993.34
2022-08-14T02:25:54.716Z,99995.34
2022-08-14T02:28:22.670Z,99991.78
2022-08-14T02:30:23.864Z,99990.63
2022-08-14T02:32:30.240Z,99981.91
2022-08-14T02:34:46.218Z,99974.44
2022-08-14T02:37:05.467Z,99971.69
2022-08-14T02:39:10.498Z,99973.66
2022-08-14T02:41:13.237Z,99971.66
2022-08-14T02:43:16.475Z,99963.81
2022-08-14T02:45:24.616Z,99965.78
2022-08-14T02:47:29.042Z,99961.03
2022-08-14T02:49:33.914Z,99962.22
2022-08-14T02:51:37.089Z,99962.59
2022-08-14T02:53:42.528Z,99962.63
2022-08-14T02:55:44.157Z,99959.09
2022-08-14T02:57:46.349Z,99956.31
2022-08-14T03:00:01.002Z,99957.91
2022-08-14T03:02:04.620Z,99959.09
2022-08-14T03:04:07.058Z,99957.50
2022-08-14T03:06:20.466Z,99962.66
2022-08-14T03:08:38.767Z,99959.50
2022-08-14T03:10:48.548Z,99961.09
2022-08-14T03:12:51.022Z,99962.25
2022-08-14T03:14:53.293Z,99961.88
2022-08-14T03:16:56.242Z,99969.75
2022-08-14T03:18:59.917Z,99972.13
2022-08-14T03:21:04.101Z,99970.16
2022-08-14T03:23:05.861Z,99970.56
2022-08-14T03:25:10.015Z,99968.59
2022-08-14T03:27:12.841Z,99971.38
2022-08-14T03:29:17.623Z,99977.28
2022-08-14T03:31:20.319Z,99970.97
2022-08-14T03:33:24.094Z,99974.91
2022-08-14T03:35:30.813Z,99976.88
2022-08-14T03:39:10.929Z,99962.28
2022-08-14T03:40:00.860Z,99961.13
2022-08-14T03:42:02.487Z,99961.91
2022-08-14T03:45:26.801Z,99960.75
2022-08-14T03:46:51.925Z,99966.25
2022-08-14T03:48:54.104Z,99967.78
2022-08-14T03:50:56.216Z,99955.59
2022-08-14T03:53:00.488Z,99958.31
2022-08-14T03:55:03.493Z,99957.53
2022-08-14T03:57:05.658Z,99960.31
2022-08-14T03:59:07.254Z,99960.69
2022-08-14T04:01:20.636Z,99950.06
2022-08-14T04:03:24.173Z,99952.38
2022-08-14T04:05:27.349Z,99948.06
2022-08-14T04:07:32.755Z,99949.22
2022-08-14T04:09:37.552Z,99953.16
2022-08-14T04:11:39.126Z,99954.75
2022-08-14T04:13:43.680Z,99954.75
2022-08-14T04:15:56.144Z,99956.28
2022-08-14T04:18:04.642Z,99954.34
2022-08-14T04:20:07.290Z,99950.75
2022-08-14T04:22:13.550Z,99948.75
2022-08-14T04:24:19.978Z,99955.44
2022-08-14T04:26:27.006Z,99945.63
2022-08-14T04:29:05.418Z,99939.75
2022-08-14T04:31:05.801Z,99946.06
2022-08-14T04:33:18.454Z,99940.09
2022-08-14T04:35:23.708Z,99942.47
2022-08-14T04:37:26.998Z,99944.81
2022-08-14T04:39:30.743Z,99944.41
2022-08-14T04:41:33.430Z,99940.06
2022-08-14T04:43:38.437Z,99952.25
2022-08-14T04:45:40.558Z,99949.09
2022-08-14T04:47:46.342Z,99939.25
2022-08-14T04:49:56.895Z,99947.91
2022-08-14T04:52:00.054Z,99952.94
2022-08-14T04:54:06.135Z,99955.69
2022-08-14T04:56:30.137Z,99945.06
2022-08-14T04:58:34.115Z,99948.59
2022-08-14T05:00:36.123Z,99950.16
2022-08-14T05:02:37.813Z,99950.94
2022-08-14T05:04:39.970Z,99953.69
2022-08-14T05:06:49.089Z,99952.13
2022-08-14T05:08:57.028Z,99953.69
2022-08-14T05:11:04.899Z,99945.75
2022-08-14T05:13:14.480Z,99948.91
2022-08-14T05:15:17.800Z,99952.09
2022-08-14T05:17:20.077Z,99950.94
2022-08-14T05:19:27.240Z,99951.34
2022-08-14T05:21:58.224Z,99943.44
2022-08-14T05:23:53.824Z,99945.78
2022-08-14T05:25:59.319Z,99947.34
2022-08-14T05:28:12.474Z,99943.84
2022-08-14T05:30:18.067Z,99942.28
2022-08-14T05:32:19.698Z,99938.75
2022-08-14T05:34:21.749Z,99932.88
2022-08-14T05:36:30.398Z,99938.00
2022-08-14T05:38:37.133Z,99933.25
2022-08-14T05:40:39.992Z,99937.22
2022-08-14T05:42:42.327Z,99934.47
2022-08-14T05:44:49.788Z,99946.69
2022-08-14T05:46:55.743Z,99943.53
2022-08-14T05:48:59.098Z,99946.25
2022-08-14T05:51:00.707Z,99952.13
2022-08-14T05:53:03.344Z,99942.31
2022-08-14T05:55:06.658Z,99939.59
2022-08-14T05:57:08.240Z,99941.56
2022-08-14T05:59:11.620Z,99936.06
2022-08-14T06:01:14.607Z,99938.44
2022-08-14T06:03:19.134Z,99941.22
2022-08-14T06:05:23.243Z,99937.28
2022-08-14T06:07:25.071Z,99932.56
2022-08-14T06:09:26.671Z,99930.25
2022-08-14T06:11:30.935Z,99931.84
2022-08-14T06:13:44.490Z,99929.53
2022-08-14T06:15:47.809Z,99926.38
2022-08-14T06:17:58.482Z,99927.94
2022-08-14T06:20:01.359Z,99920.84
2022-08-14T06:22:03.480Z,99925.22
2022-08-14T06:24:05.483Z,99924.44
2022-08-14T06:26:12.234Z,99929.56
2022-08-14T06:28:27.495Z,99921.69
2022-08-14T06:30:45.803Z,99922.84
2022-08-14T06:32:52.575Z,99909.50
2022-08-14T06:35:09.671Z,99919.31
2022-08-14T06:37:16.704Z,99909.84
2022-08-14T06:39:18.601Z,99902.31
2022-08-14T06:41:58.355Z,99900.72
2022-08-14T06:44:00.233Z,99892.00
2022-08-14T06:46:03.786Z,99888.03
2022-08-14T06:48:13.027Z,99883.28
2022-08-14T06:50:18.915Z,99882.47
2022-08-14T06:52:23.541Z,99870.19
2022-08-14T06:54:31.244Z,99870.50
2022-08-14T06:56:33.532Z,99866.91
2022-08-14T06:58:36.820Z,99849.47
2022-08-14T07:00:38.824Z,99858.53
2022-08-14T07:02:43.603Z,99847.78
2022-08-14T07:04:45.476Z,99849.69
2022-08-14T07:06:48.483Z,99845.31
2022-08-14T07:08:50.140Z,99844.03
2022-08-14T07:10:54.516Z,99853.00
2022-08-14T07:13:04.236Z,99853.28
2022-08-14T07:15:07.450Z,99849.72
2022-08-14T07:17:09.025Z,99857.53
2022-08-14T07:19:11.244Z,99862.22
2022-08-14T07:21:12.840Z,99856.59
2022-08-14T07:23:19.942Z,99854.09
2022-08-14T07:25:22.923Z,99850.84
2022-08-14T07:27:36.138Z,99846.78
2022-08-14T07:29:51.671Z,99844.69
2022-08-14T07:31:53.819Z,99848.09
2022-08-14T07:33:55.432Z,99839.31
2022-08-14T07:36:00.435Z,99832.94
2022-08-14T07:38:02.058Z,99835.19
2022-08-14T07:40:06.449Z,99842.97
2022-08-14T07:42:08.232Z,99845.03
2022-08-14T07:44:29.489Z,99857.69
2022-08-14T07:46:31.880Z,99858.88
2022-08-14T07:48:38.197Z,99860.84
2022-08-14T07:50:40.511Z,99868.47
2022-08-14T07:52:48.774Z,99862.78
2022-08-14T07:54:50.615Z,99869.81
2022-08-14T07:56:56.554Z,99866.94
2022-08-14T07:58:58.699Z,99864.16
2022-08-14T08:01:01.436Z,99859.03
2022-08-14T08:03:04.709Z,99859.41
2022-08-14T08:05:07.871Z,99851.84
2022-08-14T08:07:10.196Z,99849.78
2022-08-14T08:09:12.531Z,99854.94
2022-08-14T08:11:16.501Z,99858.06
2022-08-14T08:13:22.337Z,99858.66
2022-08-14T08:15:27.492Z,99861.06
2022-08-14T08:17:34.963Z,99860.28
2022-08-14T08:19:39.954Z,99863.03
2022-08-14T08:21:43.526Z,99866.41
2022-08-14T08:23:50.932Z,99862.63
2022-08-14T08:25:53.198Z,99864.25
2022-08-14T08:28:08.195Z,99863.81
2022-08-14T08:30:13.305Z,99856.03
2022-08-14T08:32:14.906Z,99856.78
2022-08-14T08:34:18.252Z,99865.81
2022-08-14T08:36:20.061Z,99855.56
2022-08-14T08:39:17.616Z,99855.06
2022-08-14T08:40:47.792Z,99852.22
2022-08-14T08:42:52.044Z,99852.97
2022-08-14T08:44:54.914Z,99852.19
2022-08-14T08:46:58.549Z,99839.88
2022-08-14T08:51:03.099Z,99841.75
2022-08-14T08:53:08.766Z,99840.06
2022-08-14T08:55:10.932Z,99836.09
2022-08-14T08:57:15.703Z,99833.63
2022-08-14T08:59:30.942Z,99832.78
2022-08-14T09:01:33.336Z,99827.50
2022-08-14T09:03:43.969Z,99828.47
2022-08-14T09:05:53.961Z,99817.44
2022-08-14T09:08:09.368Z,99822.91
2022-08-14T09:10:30.911Z,99824.44
2022-08-14T09:12:33.194Z,99823.16
2022-08-14T09:14:34.958Z,99812.75
2022-08-14T09:16:41.554Z,99817.38
2022-08-14T09:18:49.946Z,99813.34
2022-08-14T09:20:58.630Z,99805.88
2022-08-14T09:23:00.776Z,99808.00
2022-08-14T09:25:03.364Z,99812.28
2022-08-14T09:27:08.671Z,99807.84
2022-08-14T09:29:23.836Z,99806.56
2022-08-14T09:31:26.783Z,99799.13
2022-08-14T09:33:58.201Z,99793.75
2022-08-14T09:36:33.300Z,99793.97
2022-08-14T09:38:45.940Z,99801.44
2022-08-14T09:40:59.140Z,99796.66
2022-08-14T09:43:11.315Z,99792.19
2022-08-14T09:45:15.405Z,99788.50
2022-08-14T09:47:18.579Z,99789.19
2022-08-14T09:49:31.832Z,99778.38
2022-08-14T09:51:44.909Z,99770.31
2022-08-14T09:54:19.461Z,99770.00
2022-08-14T09:56:24.315Z,99771.47
2022-08-14T09:58:37.874Z,99775.31
2022-08-14T10:00:45.150Z,99771.41
2022-08-14T10:02:54.617Z,99775.75
2022-08-14T10:05:05.945Z,99777.22
2022-08-14T10:07:10.394Z,99778.72
2022-08-14T10:09:16.558Z,99784.63
2022-08-14T10:11:23.576Z,99789.38
2022-08-14T10:13:26.103Z,99786.53
2022-08-14T10:15:30.964Z,99782.88
2022-08-14T10:17:33.125Z,99778.91
2022-08-14T10:19:48.454Z,99774.81
2022-08-14T10:23:12.019Z,99786.28
2022-08-14T10:24:37.035Z,99778.41
2022-08-14T10:26:39.217Z,99765.81
2022-08-14T10:29:18.699Z,99754.84
2022-08-14T10:31:16.550Z,99755.91
2022-08-14T10:33:27.697Z,99745.38
2022-08-14T10:35:39.943Z,99738.53
2022-08-14T10:37:45.627Z,99736.88
2022-08-14T10:40:05.522Z,99716.84
2022-08-14T10:42:16.473Z,99720.56
2022-08-14T10:44:23.419Z,99709.91
2022-08-14T10:47:37.182Z,99713.38
2022-08-14T10:48:56.730Z,99710.31
2022-08-14T10:50:58.284Z,99698.66
2022-08-14T10:53:03.201Z,99697.25
2022-08-14T10:55:07.375Z,99684.31
2022-08-14T10:57:14.357Z,99673.09
2022-08-14T10:59:18.858Z,99659.19
2022-08-14T11:01:30.696Z,99653.75
2022-08-14T11:03:56.766Z,99657.13
2022-08-14T11:05:58.906Z,99647.91
2022-08-14T11:08:02.004Z,99640.78
2022-08-14T11:10:14.516Z,99646.72
2022-08-14T11:12:34.295Z,99649.34
2022-08-14T11:14:41.037Z,99648.28
2022-08-14T11:16:53.437Z,99650.16
2022-08-14T11:18:59.641Z,99644.28
2022-08-14T11:21:01.942Z,99638.34
2022-08-14T11:23:08.706Z,99635.19
2022-08-14T11:25:12.611Z,99643.50
2022-08-14T11:27:23.668Z,99641.88
2022-08-14T11:29:36.353Z,99640.44
2022-08-14T11:31:39.361Z,99646.00
2022-08-14T11:33:43.459Z,99631.69
2022-08-14T11:35:48.558Z,99634.06
2022-08-14T11:37:52.120Z,99642.84
2022-08-14T11:39:59.466Z,99635.72
2022-08-14T11:42:01.210Z,99631.22
2022-08-14T11:44:45.419Z,99632.28
2022-08-14T11:46:44.496Z,99634.78
2022-08-14T11:49:01.591Z,99642.28
2022-08-14T11:51:13.071Z,99641.28
2022-08-14T11:53:20.604Z,99636.59
2022-08-14T11:55:27.118Z,99637.34
2022-08-14T11:57:28.771Z,99634.91
2022-08-14T11:59:33.581Z,99628.56
2022-08-14T12:01:41.216Z,99633.75
2022-08-14T12:03:52.424Z,99631.31
2022-08-14T12:06:05.642Z,99626.25
2022-08-14T12:08:12.151Z,99622.19
2022-08-14T12:10:26.728Z,99614.50
2022-08-14T12:12:42.222Z,99619.06
2022-08-14T12:14:50.031Z,99615.22
2022-08-14T12:16:59.687Z,99605.03
2022-08-14T12:19:03.789Z,99600.63
2022-08-14T12:21:15.749Z,99598.97
2022-08-14T12:23:22.823Z,99597.81
2022-08-14T12:25:25.217Z,99586.97
2022-08-14T12:27:41.364Z,99586.47
2022-08-14T12:29:54.161Z,99590.63
2022-08-14T12:32:00.739Z,99583.34
2022-08-14T12:34:04.342Z,99581.22
2022-08-14T12:36:20.695Z,99570.53
2022-08-14T12:38:33.071Z,99568.19
2022-08-14T12:40:46.119Z,99565.28
2022-08-14T12:42:53.772Z,99557.84
2022-08-14T12:44:57.136Z,99562.25
2022-08-14T12:47:07.285Z,99544.91
2022-08-14T12:49:11.004Z,99540.06
2022-08-14T12:51:16.832Z,99536.81
2022-08-14T12:53:19.524Z,99538.47
2022-08-14T12:55:21.682Z,99525.94
2022-08-14T12:57:32.950Z,99528.44
2022-08-14T12:59:43.127Z,99528.22
2022-08-14T13:01:59.324Z,99517.75
2022-08-14T13:04:07.391Z,99517.59
2022-08-14T13:06:09.219Z,99510.75
2022-08-14T13:08:33.630Z,99502.69
2022-08-14T13:10:47.316Z,99506.94
2022-08-14T13:13:13.291Z,99506.44
2022-08-14T13:15:16.953Z,99512.56
2022-08-14T13:17:23.594Z,99508.56
2022-08-14T13:19:28.229Z,99514.69
2022-08-14T13:21:30.697Z,99505.41
2022-08-14T13:23:53.345Z,99504.75
2022-08-14T13:25:56.742Z,99483.91
2022-08-14T13:27:58.831Z,99484.69
2022-08-14T13:30:01.695Z,99489.56
2022-08-14T13:32:06.269Z,99484.69
2022-08-14T13:34:12.518Z,99479.22
2022-08-14T13:36:24.012Z,99473.84
2022-08-14T13:38:27.996Z,99470.28
2022-08-14T13:40:29.773Z,99475.97
2022-08-14T13:42:31.928Z,99476.19
2022-08-14T13:44:36.281Z,99473.09
2022-08-14T13:46:44.559Z,99475.97
2022-08-14T13:48:48.221Z,99460.81
2022-08-14T13:50:55.279Z,99458.78
2022-08-14T13:52:59.719Z,99458.53
2022-08-14T13:55:04.955Z,99458.50
2022-08-14T13:57:11.469Z,99450.31
2022-08-14T13:59:20.090Z,99459.53
2022-08-14T14:01:25.824Z,99450.03
2022-08-14T14:03:30.160Z,99444.66
2022-08-14T14:05:52.725Z,99448.50
2022-08-14T14:07:59.941Z,99447.97
2022-08-14T14:10:05.410Z,99447.50
2022-08-14T14:12:37.899Z,99434.66
2022-08-14T14:14:50.943Z,99437.47
2022-08-14T14:16:53.508Z,99429.78
2022-08-14T14:18:57.601Z,99433.53
2022-08-14T14:20:59.332Z,99435.56
2022-08-14T14:23:09.645Z,99427.94
2022-08-14T14:25:19.425Z,99434.03
2022-08-14T14:27:41.071Z,99429.78
2022-08-14T14:29:47.523Z,99432.28
2022-08-14T14:31:52.781Z,99424.91
2022-08-14T14:33:59.799Z,99426.72
2022-08-14T14:36:03.254Z,99423.06
2022-08-14T14:38:13.178Z,99424.28
2022-08-14T14:40:52.183Z,99416.47
2022-08-14T14:42:47.999Z,99411.91
2022-08-14T14:45:01.178Z,99413.09
2022-08-14T14:47:03.254Z,99408.94
2022-08-14T14:49:10.095Z,99402.63
2022-08-14T14:51:16.893Z,99403.44
2022-08-14T14:53:20.541Z,99404.84
2022-08-14T14:55:22.384Z,99411.38
2022-08-14T14:57:30.310Z,99415.91
2022-08-14T14:59:38.042Z,99416.41
2022-08-14T15:01:41.115Z,99417.53
2022-08-14T15:03:43.346Z,99411.09
2022-08-14T15:05:44.938Z,99403.16
2022-08-14T15:07:49.988Z,99402.00
2022-08-14T15:09:53.207Z,99396.09
2022-08-14T15:11:54.906Z,99392.03
2022-08-14T15:13:56.956Z,99395.19
2022-08-14T15:15:59.777Z,99389.88
2022-08-14T15:18:02.328Z,99391.75
2022-08-14T15:20:10.699Z,99384.47
2022-08-14T15:22:19.416Z,99385.91
2022-08-14T15:24:26.398Z,99388.94
2022-08-14T15:26:32.017Z,99394.97
2022-08-14T15:28:38.652Z,99391.75
2022-08-14T15:30:41.825Z,99389.44
2022-08-14T15:32:43.515Z,99393.78
2022-08-14T15:34:51.765Z,99388.19
2022-08-14T15:36:54.579Z,99390.88
2022-08-14T15:38:56.282Z,99384.22
2022-08-14T15:40:59.262Z,99381.88
2022-08-14T15:43:09.094Z,99379.44
2022-08-14T15:45:12.975Z,99384.22
2022-08-14T15:47:16.561Z,99384.28
2022-08-14T15:49:34.891Z,99382.91
2022-08-14T15:51:42.282Z,99381.53
2022-08-14T15:53:46.630Z,99380.47
2022-08-14T15:55:52.925Z,99383.16
2022-08-14T15:58:02.050Z,99381.78
2022-08-14T16:00:11.407Z,99383.00
2022-08-14T16:02:27.431Z,99385.50
2022-08-14T16:04:29.340Z,99386.13
2022-08-14T16:06:31.098Z,99391.59
2022-08-14T16:08:32.908Z,99382.13
2022-08-14T16:10:41.525Z,99384.16
2022-08-14T16:12:50.053Z,99386.19
2022-08-14T16:14:51.706Z,99383.88
2022-08-14T16:17:00.036Z,99389.13
2022-08-14T16:19:04.063Z,99382.44
2022-08-14T16:21:12.487Z,99377.63
2022-08-14T16:23:15.622Z,99371.13
2022-08-14T16:25:19.470Z,99384.16
2022-08-14T16:27:39.343Z,99384.47
2022-08-14T16:29:43.055Z,99374.72
2022-08-14T16:31:47.093Z,99370.81
2022-08-14T16:33:59.594Z,99375.63
2022-08-14T16:36:04.932Z,99376.09
2022-08-14T16:38:45.758Z,99369.88
2022-08-14T16:40:48.608Z,99368.34
2022-08-14T16:43:04.582Z,99369.25
2022-08-14T16:45:12.547Z,99369.75
2022-08-14T16:47:15.411Z,99355.94
2022-08-14T16:49:18.493Z,99359.97
2022-08-14T16:51:21.777Z,99363.38
2022-08-14T16:53:23.650Z,99357.03
2022-08-14T16:55:30.531Z,99355.94
2022-08-14T16:57:32.710Z,99355.00
2022-08-14T16:59:52.751Z,99357.81
2022-08-14T17:01:57.862Z,99346.47
2022-08-14T17:04:02.324Z,99354.84
2022-08-14T17:06:30.869Z,99349.75
2022-08-14T17:08:41.379Z,99354.41
2022-08-14T17:11:04.750Z,99352.06
2022-08-14T17:13:17.148Z,99351.13
2022-08-14T17:15:18.882Z,99350.97
2022-08-14T17:17:22.448Z,99356.25
2022-08-14T17:19:25.814Z,99338.25
2022-08-14T17:21:37.587Z,99343.84
2022-08-14T17:23:39.858Z,99344.16
2022-08-14T17:25:49.287Z,99343.34
2022-08-14T17:28:49.756Z,99346.47
2022-08-14T17:30:49.018Z,99332.34
2022-08-14T17:32:57.530Z,99336.84
2022-08-14T17:35:01.897Z,99334.50
2022-08-14T17:37:05.609Z,99334.50
2022-08-14T17:39:17.622Z,99334.34
2022-08-14T17:41:21.583Z,99335.31
2022-08-14T17:43:29.434Z,99339.78
2022-08-14T17:45:44.369Z,99335.75
2022-08-14T17:47:49.102Z,99333.88
2022-08-14T17:49:53.031Z,99342.25
2022-08-14T17:51:57.166Z,99334.84
2022-08-14T17:54:08.549Z,99337.94
2022-08-14T17:56:10.526Z,99343.53
2022-08-14T17:58:20.527Z,99339.31
2022-08-14T18:00:23.074Z,99336.03
2022-08-14T18:02:31.467Z,99339.56
2022-08-14T18:04:35.040Z,99341.41
2022-08-14T18:06:38.626Z,99344.19
2022-08-14T18:08:58.876Z,99345.25
2022-08-14T18:11:03.391Z,99337.03
2022-08-14T18:13:05.423Z,99334.06
2022-08-14T18:15:14.494Z,99329.56
2022-08-14T18:17:18.874Z,99335.28
2022-08-14T18:19:30.031Z,99344.22
2022-08-14T18:21:56.610Z,99344.81
2022-08-14T18:23:53.336Z,99341.84
2022-08-14T18:25:58.793Z,99347.25
2022-08-14T18:28:16.001Z,99344.47
2022-08-14T18:30:33.404Z,99346.47
2022-08-14T18:32:47.474Z,99345.22
2022-08-14T18:34:59.435Z,99352.22
2022-08-14T18:37:16.983Z,99355.00
2022-08-14T18:40:03.631Z,99350.38
2022-08-14T18:42:32.171Z,99355.94
2022-08-14T18:45:16.063Z,99360.41
2022-08-14T18:47:23.293Z,99364.88
2022-08-14T18:49:24.909Z,99359.44
2022-08-14T18:51:45.675Z,99366.06
2022-08-14T18:53:56.970Z,99366.66
2022-08-14T18:56:00.089Z,99364.78
2022-08-14T18:58:26.569Z,99365.69
2022-08-14T19:00:53.067Z,99362.59
2022-08-14T19:02:55.557Z,99364.38
2022-08-14T19:05:02.647Z,99367.31
2022-08-14T19:07:16.233Z,99371.00
2022-08-14T19:10:06.816Z,99377.81
2022-08-14T19:12:15.354Z,99382.72
2022-08-14T19:14:44.134Z,99380.06
2022-08-14T19:16:53.570Z,99387.00
2022-08-14T19:19:00.232Z,99385.56
2022-08-14T19:21:13.524Z,99395.09
2022-08-14T19:23:17.367Z,99387.44
2022-08-14T19:25:47.496Z,99392.03
2022-08-14T19:28:27.374Z,99396.38
2022-08-14T19:30:33.541Z,99397.50
2022-08-14T19:32:38.300Z,99398.53
2022-08-14T19:34:48.023Z,99402.31
2022-08-14T19:37:05.527Z,99399.66
2022-08-14T19:39:08.058Z,99399.91
2022-08-14T19:41:13.689Z,99401.03
2022-08-14T19:43:56.215Z,99405.44
2022-08-14T19:45:45.965Z,99408.00
2022-08-14T19:47:50.082Z,99406.22
2022-08-14T19:50:24.450Z,99413.47
2022-08-14T19:52:22.198Z,99409.56
2022-08-14T19:54:29.640Z,99404.22
2022-08-14T19:56:35.983Z,99409.78
2022-08-14T19:58:54.468Z,99403.56
2022-08-14T20:00:58.952Z,99418.00
2022-08-14T20:03:10.915Z,99416.66
2022-08-14T20:05:18.006Z,99424.53
2022-08-14T20:07:27.403Z,99420.28
2022-08-14T20:11:04.788Z,99419.06
2022-08-14T20:12:29.184Z,99408.25
2022-08-14T20:14:38.419Z,99416.56
2022-08-14T20:16:42.697Z,99421.03
2022-08-14T20:18:49.895Z,99424.34
2022-08-14T20:20:54.980Z,99426.00
2022-08-14T20:22:56.647Z,99426.22
2022-08-14T20:25:13.770Z,99420.41
2022-08-14T20:27:33.496Z,99426.75
2022-08-14T20:29:37.948Z,99426.63
2022-08-14T20:31:40.731Z,99432.19
2022-08-14T20:34:24.387Z,99426.56
2022-08-14T20:36:31.959Z,99426.56
2022-08-14T20:38:34.255Z,99430.00
2022-08-14T20:40:50.328Z,99426.00
2022-08-14T20:42:54.085Z,99431.56
2022-08-14T20:45:03.014Z,99423.91
2022-08-14T20:47:05.803Z,99428.69
2022-08-14T20:49:12.887Z,99425.91
2022-08-14T20:51:23.983Z,99426.25
2022-08-14T20:53:35.867Z,99424.03
2022-08-14T20:55:41.413Z,99419.69
2022-08-14T20:57:46.825Z,99426.25
2022-08-14T20:59:56.768Z,99426.94
2022-08-14T21:02:28.987Z,99429.25
2022-08-14T21:04:36.265Z,99435.25
2022-08-14T21:07:24.775Z,99431.34
2022-08-14T21:09:11.660Z,99430.94
2022-08-14T21:11:17.925Z,99433.25
2022-08-14T21:14:09.074Z,99433.72
2022-08-14T21:15:42.121Z,99428.78
2022-08-14T21:17:45.170Z,99432.78
2022-08-14T21:19:50.535Z,99433.00
2022-08-14T21:21:56.672Z,99436.28
2022-08-14T21:23:58.580Z,99440.38
2022-08-14T21:26:00.610Z,99445.34
2022-08-14T21:28:05.200Z,99447.13
2022-08-14T21:30:11.451Z,99453.34
2022-08-14T21:32:20.778Z,99451.19
2022-08-14T21:34:27.400Z,99456.75
2022-08-14T21:36:34.690Z,99450.06
2022-08-14T21:38:43.278Z,99442.44
2022-08-14T21:40:49.777Z,99446.44
2022-08-14T21:42:51.491Z,99432.66
2022-08-14T21:44:54.253Z,99441.38
2022-08-14T21:46:56.695Z,99443.47
2022-08-14T21:48:58.325Z,99447.91
2022-08-14T21:51:53.724Z,99442.09
2022-08-14T21:53:27.537Z,99442.69
2022-08-14T21:55:32.917Z,99445.91
2022-08-14T21:57:56.288Z,99449.91
2022-08-14T22:00:02.003Z,99442.53
2022-08-14T22:02:05.601Z,99441.13
2022-08-14T22:04:33.157Z,99447.63
2022-08-14T22:06:32.206Z,99446.75
2022-08-14T22:08:33.844Z,99440.09
2022-08-14T22:10:35.958Z,99447.88
2022-08-14T22:12:45.287Z,99447.03
2022-08-14T22:15:00.960Z,99447.78
2022-08-14T22:17:12.670Z,99450.16
2022-08-14T22:19:21.131Z,99453.78
2022-08-14T22:21:22.860Z,99456.13
2022-08-14T22:23:27.607Z,99447.38
2022-08-14T22:25:33.874Z,99446.22
2022-08-14T22:27:55.909Z,99452.72
2022-08-14T22:29:58.740Z,99450.84
2022-08-14T22:32:00.425Z,99452.72
2022-08-14T22:34:09.899Z,99440.75
2022-08-14T22:36:12.574Z,99445.53
2022-08-14T22:38:35.406Z,99443.97
2022-08-14T22:40:58.391Z,99451.59
2022-08-14T22:43:08.319Z,99448.16
2022-08-14T22:45:10.856Z,99445.78
2022-08-14T22:47:17.074Z,99450.56
2022-08-14T22:50:30.725Z,99445.09
2022-08-14T22:51:50.234Z,99440.81
2022-08-14T22:53:56.152Z,99440.81
2022-08-14T22:55:59.829Z,99448.88
2022-08-14T22:58:02.539Z,99451.38
2022-08-14T23:00:06.895Z,99450.25
2022-08-14T23:02:14.059Z,99449.50
2022-08-14T23:04:35.033Z,99448.41
2022-08-14T23:07:02.515Z,99452.00
2022-08-14T23:09:34.845Z,99450.50
2022-08-14T23:11:22.660Z,99449.34
2022-08-14T23:13:24.628Z,99455.41
2022-08-14T23:15:28.991Z,99455.47
2022-08-14T23:17:39.492Z,99458.28
2022-08-14T23:19:42.162Z,99465.84
2022-08-14T23:21:46.181Z,99462.03
2022-08-14T23:23:49.307Z,99466.75
2022-08-14T23:26:46.895Z,99469.59
2022-08-14T23:28:34.556Z,99469.91
2022-08-14T23:30:48.956Z,99471.53
2022-08-14T23:32:52.436Z,99468.84
2022-08-14T23:34:54.977Z,99463.06
2022-08-14T23:36:59.341Z,99466.25
2022-08-14T23:39:12.360Z,99456.91
2022-08-14T23:41:22.429Z,99460.44
2022-08-14T23:43:24.515Z,99461.72
2022-08-14T23:45:36.742Z,99467.28
2022-08-14T23:47:52.009Z,99465.72
2022-08-14T23:50:00.677Z,99455.00
2022-08-14T23:52:50.480Z,99456.53
2022-08-14T23:54:49.411Z,99450.63
2022-08-14T23:56:48.938Z,99447.44
2022-08-14T23:59:04.362Z,99444.94
